sensor_id;sensor_type;location;lat;lon;timestamp;P1;durP1;ratioP1;P2;durP2;ratioP2
18066;SDS011;9158;51.528;7.192;2023-06-14T00:00:06;5.97;;;5.47;;
18066;SDS011;9158;51.528;7.192;2023-06-14T00:00:39;6.50;;;5.88;;
18066;SDS011;9158;51.528;7.192;2023-06-14T00:01:11;6.90;;;5.95;;
18066;SDS011;9158;51.528;7.192;2023-06-14T00:01:43;7.68;;;5.82;;
18066;SDS011;9158;51.528;7.192;2023-06-14T00:02:15;7.35;;;5.72;;
18066;SDS011;9158;51.528;7.192;2023-06-14T00:02:47;6.90;;;6.15;;
18066;SDS011;9158;51.528;7.192;2023-06-14T00:03:18;6.20;;;5.70;;
18066;SDS011;9158;51.528;7.192;2023-06-14T00:03:52;6.93;;;6.07;;
18066;SDS011;9158;51.528;7.192;2023-06-14T00:04:24;6.35;;;5.85;;
18066;SDS011;9158;51.528;7.192;2023-06-14T00:04:55;6.32;;;5.80;;
18066;SDS011;9158;51.528;7.192;2023-06-14T00:05:26;7.30;;;5.72;;
18066;SDS011;9158;51.528;7.192;2023-06-14T00:05:59;6.20;;;5.70;;
18066;SDS011;9158;51.528;7.192;2023-06-14T00:06:30;7.38;;;6.60;;
18066;SDS011;9158;51.528;7.192;2023-06-14T00:07:04;7.15;;;6.20;;
18066;SDS011;9158;51.528;7.192;2023-06-14T00:07:38;8.57;;;5.57;;
18066;SDS011;9158;51.528;7.192;2023-06-14T00:08:13;6.88;;;5.80;;
18066;SDS011;9158;51.528;7.192;2023-06-14T00:08:46;6.15;;;5.65;;
18066;SDS011;9158;51.528;7.192;2023-06-14T00:09:18;8.75;;;5.22;;
18066;SDS011;9158;51.528;7.192;2023-06-14T00:09:49;7.03;;;5.75;;
18066;SDS011;9158;51.528;7.192;2023-06-14T00:10:20;9.30;;;6.75;;
18066;SDS011;9158;51.528;7.192;2023-06-14T00:10:52;9.15;;;5.60;;
18066;SDS011;9158;51.528;7.192;2023-06-14T00:11:23;6.97;;;5.68;;
18066;SDS011;9158;51.528;7.192;2023-06-14T00:11:56;9.88;;;6.07;;
18066;SDS011;9158;51.528;7.192;2023-06-14T00:12:28;5.75;;;5.25;;
18066;SDS011;9158;51.528;7.192;2023-06-14T00:12:59;6.70;;;6.10;;
18066;SDS011;9158;51.528;7.192;2023-06-14T00:13:30;6.25;;;5.60;;
18066;SDS011;9158;51.528;7.192;2023-06-14T00:14:02;6.15;;;5.55;;
18066;SDS011;9158;51.528;7.192;2023-06-14T00:14:34;7.20;;;6.22;;
18066;SDS011;9158;51.528;7.192;2023-06-14T00:15:05;8.60;;;6.07;;
18066;SDS011;9158;51.528;7.192;2023-06-14T00:15:37;6.93;;;6.43;;
18066;SDS011;9158;51.528;7.192;2023-06-14T00:16:10;6.07;;;5.53;;
18066;SDS011;9158;51.528;7.192;2023-06-14T00:16:41;5.47;;;4.97;;
18066;SDS011;9158;51.528;7.192;2023-06-14T00:17:12;6.70;;;6.10;;
18066;SDS011;9158;51.528;7.192;2023-06-14T00:17:46;7.38;;;5.90;;
18066;SDS011;9158;51.528;7.192;2023-06-14T00:18:17;5.20;;;4.70;;
18066;SDS011;9158;51.528;7.192;2023-06-14T00:18:48;6.30;;;5.70;;
18066;SDS011;9158;51.528;7.192;2023-06-14T00:19:21;6.28;;;5.68;;
18066;SDS011;9158;51.528;7.192;2023-06-14T00:19:53;7.00;;;6.30;;
18066;SDS011;9158;51.528;7.192;2023-06-14T00:20:24;5.73;;;5.33;;
18066;SDS011;9158;51.528;7.192;2023-06-14T00:20:56;6.00;;;5.40;;
18066;SDS011;9158;51.528;7.192;2023-06-14T00:21:28;6.90;;;6.30;;
18066;SDS011;9158;51.528;7.192;2023-06-14T00:21:59;7.22;;;5.53;;
18066;SDS011;9158;51.528;7.192;2023-06-14T00:22:31;5.63;;;5.22;;
18066;SDS011;9158;51.528;7.192;2023-06-14T00:23:03;6.10;;;5.15;;
18066;SDS011;9158;51.528;7.192;2023-06-14T00:23:34;7.28;;;5.40;;
18066;SDS011;9158;51.528;7.192;2023-06-14T00:24:06;6.47;;;5.88;;
18066;SDS011;9158;51.528;7.192;2023-06-14T00:24:39;8.45;;;5.43;;
18066;SDS011;9158;51.528;7.192;2023-06-14T00:25:10;6.30;;;5.70;;
18066;SDS011;9158;51.528;7.192;2023-06-14T00:25:41;6.20;;;5.70;;
18066;SDS011;9158;51.528;7.192;2023-06-14T00:26:12;6.28;;;5.63;;
18066;SDS011;9158;51.528;7.192;2023-06-14T00:26:44;8.02;;;5.22;;
18066;SDS011;9158;51.528;7.192;2023-06-14T00:27:15;7.90;;;6.10;;
18066;SDS011;9158;51.528;7.192;2023-06-14T00:27:46;5.43;;;4.95;;
18066;SDS011;9158;51.528;7.192;2023-06-14T00:28:19;6.28;;;5.68;;
18066;SDS011;9158;51.528;7.192;2023-06-14T00:28:50;5.80;;;5.13;;
18066;SDS011;9158;51.528;7.192;2023-06-14T00:29:22;5.90;;;5.20;;
18066;SDS011;9158;51.528;7.192;2023-06-14T00:29:54;5.20;;;4.70;;
18066;SDS011;9158;51.528;7.192;2023-06-14T00:30:25;6.63;;;6.03;;
18066;SDS011;9158;51.528;7.192;2023-06-14T00:31:00;6.30;;;5.70;;
18066;SDS011;9158;51.528;7.192;2023-06-14T00:31:32;5.47;;;4.97;;
18066;SDS011;9158;51.528;7.192;2023-06-14T00:32:04;7.72;;;5.70;;
18066;SDS011;9158;51.528;7.192;2023-06-14T00:32:36;5.00;;;4.60;;
18066;SDS011;9158;51.528;7.192;2023-06-14T00:33:07;9.83;;;5.77;;
18066;SDS011;9158;51.528;7.192;2023-06-14T00:33:39;5.80;;;5.40;;
18066;SDS011;9158;51.528;7.192;2023-06-14T00:34:09;5.63;;;5.13;;
18066;SDS011;9158;51.528;7.192;2023-06-14T00:34:40;8.40;;;5.67;;
18066;SDS011;9158;51.528;7.192;2023-06-14T00:35:13;6.25;;;5.65;;
18066;SDS011;9158;51.528;7.192;2023-06-14T00:35:44;6.78;;;5.72;;
18066;SDS011;9158;51.528;7.192;2023-06-14T00:36:15;5.93;;;5.25;;
18066;SDS011;9158;51.528;7.192;2023-06-14T00:36:47;8.18;;;5.00;;
18066;SDS011;9158;51.528;7.192;2023-06-14T00:37:18;7.15;;;5.25;;
18066;SDS011;9158;51.528;7.192;2023-06-14T00:37:49;5.97;;;5.47;;
18066;SDS011;9158;51.528;7.192;2023-06-14T00:38:21;5.43;;;4.95;;
18066;SDS011;9158;51.528;7.192;2023-06-14T00:38:52;6.43;;;5.80;;
18066;SDS011;9158;51.528;7.192;2023-06-14T00:39:24;5.63;;;5.20;;
18066;SDS011;9158;51.528;7.192;2023-06-14T00:39:56;6.22;;;5.63;;
18066;SDS011;9158;51.528;7.192;2023-06-14T00:40:27;5.30;;;4.80;;
18066;SDS011;9158;51.528;7.192;2023-06-14T00:40:58;6.03;;;5.45;;
18066;SDS011;9158;51.528;7.192;2023-06-14T00:41:30;5.80;;;5.20;;
18066;SDS011;9158;51.528;7.192;2023-06-14T00:42:03;7.35;;;5.68;;
18066;SDS011;9158;51.528;7.192;2023-06-14T00:42:35;8.45;;;5.20;;
18066;SDS011;9158;51.528;7.192;2023-06-14T00:43:06;5.93;;;5.25;;
18066;SDS011;9158;51.528;7.192;2023-06-14T00:43:38;6.10;;;5.00;;
18066;SDS011;9158;51.528;7.192;2023-06-14T00:44:09;6.00;;;5.40;;
18066;SDS011;9158;51.528;7.192;2023-06-14T00:44:41;6.03;;;5.40;;
18066;SDS011;9158;51.528;7.192;2023-06-14T00:45:12;6.27;;;5.50;;
18066;SDS011;9158;51.528;7.192;2023-06-14T00:45:44;8.05;;;5.00;;
18066;SDS011;9158;51.528;7.192;2023-06-14T00:46:17;7.18;;;5.72;;
18066;SDS011;9158;51.528;7.192;2023-06-14T00:46:49;7.72;;;4.57;;
18066;SDS011;9158;51.528;7.192;2023-06-14T00:47:21;5.72;;;5.15;;
18066;SDS011;9158;51.528;7.192;2023-06-14T00:47:53;5.75;;;5.25;;
18066;SDS011;9158;51.528;7.192;2023-06-14T00:48:25;5.43;;;4.85;;
18066;SDS011;9158;51.528;7.192;2023-06-14T00:48:57;5.10;;;4.60;;
18066;SDS011;9158;51.528;7.192;2023-06-14T00:49:31;5.30;;;4.63;;
18066;SDS011;9158;51.528;7.192;2023-06-14T00:50:02;5.10;;;4.68;;
18066;SDS011;9158;51.528;7.192;2023-06-14T00:50:36;5.80;;;5.30;;
18066;SDS011;9158;51.528;7.192;2023-06-14T00:51:08;6.38;;;4.88;;
18066;SDS011;9158;51.528;7.192;2023-06-14T00:51:40;6.40;;;5.03;;
18066;SDS011;9158;51.528;7.192;2023-06-14T00:52:11;5.45;;;4.45;;
18066;SDS011;9158;51.528;7.192;2023-06-14T00:52:42;5.65;;;5.10;;
18066;SDS011;9158;51.528;7.192;2023-06-14T00:53:14;5.50;;;4.47;;
18066;SDS011;9158;51.528;7.192;2023-06-14T00:53:48;5.13;;;4.63;;
18066;SDS011;9158;51.528;7.192;2023-06-14T00:54:21;4.75;;;4.35;;
18066;SDS011;9158;51.528;7.192;2023-06-14T00:54:54;6.07;;;4.78;;
18066;SDS011;9158;51.528;7.192;2023-06-14T00:55:25;5.00;;;4.60;;
18066;SDS011;9158;51.528;7.192;2023-06-14T00:55:56;5.60;;;4.65;;
18066;SDS011;9158;51.528;7.192;2023-06-14T00:56:28;5.07;;;4.57;;
18066;SDS011;9158;51.528;7.192;2023-06-14T00:56:59;5.43;;;5.03;;
18066;SDS011;9158;51.528;7.192;2023-06-14T00:57:30;5.15;;;4.60;;
18066;SDS011;9158;51.528;7.192;2023-06-14T00:58:02;6.53;;;5.18;;
18066;SDS011;9158;51.528;7.192;2023-06-14T00:58:34;6.10;;;4.72;;
18066;SDS011;9158;51.528;7.192;2023-06-14T00:59:05;5.85;;;5.25;;
18066;SDS011;9158;51.528;7.192;2023-06-14T00:59:38;6.90;;;4.55;;
18066;SDS011;9158;51.528;7.192;2023-06-14T01:00:13;5.22;;;4.80;;
18066;SDS011;9158;51.528;7.192;2023-06-14T01:01:04;4.85;;;4.45;;
18066;SDS011;9158;51.528;7.192;2023-06-14T01:01:56;5.35;;;4.90;;
18066;SDS011;9158;51.528;7.192;2023-06-14T01:02:45;5.60;;;5.10;;
18066;SDS011;9158;51.528;7.192;2023-06-14T01:03:36;6.65;;;5.00;;
18066;SDS011;9158;51.528;7.192;2023-06-14T01:04:26;5.70;;;4.55;;
18066;SDS011;9158;51.528;7.192;2023-06-14T01:04:58;4.28;;;3.95;;
18066;SDS011;9158;51.528;7.192;2023-06-14T01:05:31;4.47;;;4.10;;
18066;SDS011;9158;51.528;7.192;2023-06-14T01:06:05;5.63;;;5.13;;
18066;SDS011;9158;51.528;7.192;2023-06-14T01:06:49;7.50;;;4.55;;
18066;SDS011;9158;51.528;7.192;2023-06-14T01:07:34;5.57;;;4.95;;
18066;SDS011;9158;51.528;7.192;2023-06-14T01:08:19;6.50;;;4.88;;
18066;SDS011;9158;51.528;7.192;2023-06-14T01:09:01;5.60;;;4.80;;
18066;SDS011;9158;51.528;7.192;2023-06-14T01:09:44;5.75;;;4.55;;
18066;SDS011;9158;51.528;7.192;2023-06-14T01:10:26;4.60;;;4.20;;
18066;SDS011;9158;51.528;7.192;2023-06-14T01:11:05;5.55;;;4.80;;
18066;SDS011;9158;51.528;7.192;2023-06-14T01:11:43;7.63;;;4.35;;
18066;SDS011;9158;51.528;7.192;2023-06-14T01:12:21;5.45;;;4.95;;
18066;SDS011;9158;51.528;7.192;2023-06-14T01:13:02;6.85;;;4.70;;
18066;SDS011;9158;51.528;7.192;2023-06-14T01:13:42;5.50;;;4.30;;
18066;SDS011;9158;51.528;7.192;2023-06-14T01:14:16;4.32;;;3.95;;
18066;SDS011;9158;51.528;7.192;2023-06-14T01:14:49;5.47;;;5.00;;
18066;SDS011;9158;51.528;7.192;2023-06-14T01:15:23;4.75;;;4.40;;
18066;SDS011;9158;51.528;7.192;2023-06-14T01:15:55;4.60;;;4.30;;
18066;SDS011;9158;51.528;7.192;2023-06-14T01:16:28;4.72;;;4.20;;
18066;SDS011;9158;51.528;7.192;2023-06-14T01:16:59;6.30;;;4.95;;
18066;SDS011;9158;51.528;7.192;2023-06-14T01:17:32;5.10;;;4.60;;
18066;SDS011;9158;51.528;7.192;2023-06-14T01:18:06;4.45;;;4.05;;
18066;SDS011;9158;51.528;7.192;2023-06-14T01:18:38;4.72;;;4.40;;
18066;SDS011;9158;51.528;7.192;2023-06-14T01:19:12;7.63;;;4.22;;
18066;SDS011;9158;51.528;7.192;2023-06-14T01:19:45;4.60;;;4.20;;
18066;SDS011;9158;51.528;7.192;2023-06-14T01:20:18;4.40;;;3.80;;
18066;SDS011;9158;51.528;7.192;2023-06-14T01:20:51;5.28;;;4.20;;
18066;SDS011;9158;51.528;7.192;2023-06-14T01:21:28;5.35;;;4.10;;
18066;SDS011;9158;51.528;7.192;2023-06-14T01:22:00;4.82;;;4.43;;
18066;SDS011;9158;51.528;7.192;2023-06-14T01:22:32;6.10;;;5.28;;
18066;SDS011;9158;51.528;7.192;2023-06-14T01:23:05;4.32;;;4.03;;
18066;SDS011;9158;51.528;7.192;2023-06-14T01:23:36;4.95;;;4.55;;
18066;SDS011;9158;51.528;7.192;2023-06-14T01:24:08;5.05;;;4.55;;
18066;SDS011;9158;51.528;7.192;2023-06-14T01:24:39;4.68;;;4.25;;
18066;SDS011;9158;51.528;7.192;2023-06-14T01:25:15;5.20;;;4.70;;
18066;SDS011;9158;51.528;7.192;2023-06-14T01:25:46;5.77;;;3.90;;
18066;SDS011;9158;51.528;7.192;2023-06-14T01:26:22;4.57;;;4.18;;
18066;SDS011;9158;51.528;7.192;2023-06-14T01:26:55;5.05;;;4.40;;
18066;SDS011;9158;51.528;7.192;2023-06-14T01:27:27;6.70;;;4.20;;
18066;SDS011;9158;51.528;7.192;2023-06-14T01:28:00;5.05;;;4.35;;
18066;SDS011;9158;51.528;7.192;2023-06-14T01:28:40;4.90;;;4.30;;
18066;SDS011;9158;51.528;7.192;2023-06-14T01:29:11;6.43;;;5.38;;
18066;SDS011;9158;51.528;7.192;2023-06-14T01:29:46;4.32;;;3.92;;
18066;SDS011;9158;51.528;7.192;2023-06-14T01:30:19;5.35;;;4.90;;
18066;SDS011;9158;51.528;7.192;2023-06-14T01:30:52;6.38;;;4.30;;
18066;SDS011;9158;51.528;7.192;2023-06-14T01:31:25;4.85;;;4.38;;
18066;SDS011;9158;51.528;7.192;2023-06-14T01:31:57;4.68;;;4.22;;
18066;SDS011;9158;51.528;7.192;2023-06-14T01:32:29;4.78;;;4.38;;
18066;SDS011;9158;51.528;7.192;2023-06-14T01:33:01;4.57;;;4.18;;
18066;SDS011;9158;51.528;7.192;2023-06-14T01:33:34;5.93;;;3.83;;
18066;SDS011;9158;51.528;7.192;2023-06-14T01:34:06;6.15;;;4.07;;
18066;SDS011;9158;51.528;7.192;2023-06-14T01:34:38;8.73;;;4.28;;
18066;SDS011;9158;51.528;7.192;2023-06-14T01:35:09;4.65;;;4.25;;
18066;SDS011;9158;51.528;7.192;2023-06-14T01:35:42;5.38;;;4.38;;
18066;SDS011;9158;51.528;7.192;2023-06-14T01:36:15;4.70;;;4.40;;
18066;SDS011;9158;51.528;7.192;2023-06-14T01:36:48;4.70;;;4.07;;
18066;SDS011;9158;51.528;7.192;2023-06-14T01:37:20;5.38;;;4.88;;
18066;SDS011;9158;51.528;7.192;2023-06-14T01:37:53;5.93;;;4.47;;
18066;SDS011;9158;51.528;7.192;2023-06-14T01:38:26;4.72;;;3.95;;
18066;SDS011;9158;51.528;7.192;2023-06-14T01:38:59;4.40;;;3.90;;
18066;SDS011;9158;51.528;7.192;2023-06-14T01:39:31;8.10;;;4.40;;
18066;SDS011;9158;51.528;7.192;2023-06-14T01:40:04;3.88;;;3.53;;
18066;SDS011;9158;51.528;7.192;2023-06-14T01:40:36;4.85;;;4.25;;
18066;SDS011;9158;51.528;7.192;2023-06-14T01:41:10;10.00;;;4.40;;
18066;SDS011;9158;51.528;7.192;2023-06-14T01:41:42;5.55;;;4.20;;
18066;SDS011;9158;51.528;7.192;2023-06-14T01:42:16;4.70;;;4.30;;
18066;SDS011;9158;51.528;7.192;2023-06-14T01:42:49;5.43;;;4.10;;
18066;SDS011;9158;51.528;7.192;2023-06-14T01:43:21;6.60;;;4.40;;
18066;SDS011;9158;51.528;7.192;2023-06-14T01:43:53;4.28;;;3.95;;
18066;SDS011;9158;51.528;7.192;2023-06-14T01:44:27;5.50;;;4.75;;
18066;SDS011;9158;51.528;7.192;2023-06-14T01:44:58;5.03;;;4.03;;
18066;SDS011;9158;51.528;7.192;2023-06-14T01:45:31;5.20;;;4.05;;
18066;SDS011;9158;51.528;7.192;2023-06-14T01:46:04;6.80;;;4.28;;
18066;SDS011;9158;51.528;7.192;2023-06-14T01:46:36;4.93;;;4.47;;
18066;SDS011;9158;51.528;7.192;2023-06-14T01:47:08;6.47;;;4.20;;
18066;SDS011;9158;51.528;7.192;2023-06-14T01:47:40;9.93;;;4.63;;
18066;SDS011;9158;51.528;7.192;2023-06-14T01:48:12;5.68;;;4.10;;
18066;SDS011;9158;51.528;7.192;2023-06-14T01:48:44;5.25;;;4.30;;
18066;SDS011;9158;51.528;7.192;2023-06-14T01:49:15;4.28;;;3.78;;
18066;SDS011;9158;51.528;7.192;2023-06-14T01:49:47;5.45;;;4.95;;
18066;SDS011;9158;51.528;7.192;2023-06-14T01:50:19;5.07;;;3.70;;
18066;SDS011;9158;51.528;7.192;2023-06-14T01:50:50;4.85;;;4.45;;
18066;SDS011;9158;51.528;7.192;2023-06-14T01:51:24;4.18;;;3.78;;
18066;SDS011;9158;51.528;7.192;2023-06-14T01:51:55;6.05;;;4.00;;
18066;SDS011;9158;51.528;7.192;2023-06-14T01:52:26;3.87;;;3.50;;
18066;SDS011;9158;51.528;7.192;2023-06-14T01:52:57;4.18;;;3.88;;
18066;SDS011;9158;51.528;7.192;2023-06-14T01:53:31;4.50;;;3.63;;
18066;SDS011;9158;51.528;7.192;2023-06-14T01:54:02;5.25;;;4.30;;
18066;SDS011;9158;51.528;7.192;2023-06-14T01:54:35;4.50;;;4.10;;
18066;SDS011;9158;51.528;7.192;2023-06-14T01:55:12;5.72;;;4.00;;
18066;SDS011;9158;51.528;7.192;2023-06-14T01:55:43;3.92;;;3.58;;
18066;SDS011;9158;51.528;7.192;2023-06-14T01:56:14;4.25;;;3.90;;
18066;SDS011;9158;51.528;7.192;2023-06-14T01:56:46;4.30;;;3.83;;
18066;SDS011;9158;51.528;7.192;2023-06-14T01:57:17;6.00;;;4.50;;
18066;SDS011;9158;51.528;7.192;2023-06-14T01:57:50;4.97;;;4.30;;
18066;SDS011;9158;51.528;7.192;2023-06-14T01:58:21;4.50;;;3.45;;
18066;SDS011;9158;51.528;7.192;2023-06-14T01:58:54;5.60;;;3.83;;
18066;SDS011;9158;51.528;7.192;2023-06-14T01:59:26;6.07;;;3.97;;
18066;SDS011;9158;51.528;7.192;2023-06-14T01:59:57;4.30;;;4.00;;
18066;SDS011;9158;51.528;7.192;2023-06-14T02:00:29;4.68;;;3.90;;
18066;SDS011;9158;51.528;7.192;2023-06-14T02:01:01;4.60;;;4.15;;
18066;SDS011;9158;51.528;7.192;2023-06-14T02:01:32;4.88;;;4.10;;
18066;SDS011;9158;51.528;7.192;2023-06-14T02:02:05;5.45;;;3.55;;
18066;SDS011;9158;51.528;7.192;2023-06-14T02:02:36;7.13;;;4.38;;
18066;SDS011;9158;51.528;7.192;2023-06-14T02:03:08;7.05;;;4.30;;
18066;SDS011;9158;51.528;7.192;2023-06-14T02:03:39;5.23;;;3.70;;
18066;SDS011;9158;51.528;7.192;2023-06-14T02:04:10;5.95;;;4.03;;
18066;SDS011;9158;51.528;7.192;2023-06-14T02:04:42;3.85;;;3.45;;
18066;SDS011;9158;51.528;7.192;2023-06-14T02:05:13;4.30;;;3.90;;
18066;SDS011;9158;51.528;7.192;2023-06-14T02:05:45;4.25;;;3.95;;
18066;SDS011;9158;51.528;7.192;2023-06-14T02:06:18;6.28;;;4.05;;
18066;SDS011;9158;51.528;7.192;2023-06-14T02:06:48;5.07;;;3.80;;
18066;SDS011;9158;51.528;7.192;2023-06-14T02:07:19;5.88;;;3.78;;
18066;SDS011;9158;51.528;7.192;2023-06-14T02:07:52;5.85;;;4.45;;
18066;SDS011;9158;51.528;7.192;2023-06-14T02:08:23;4.07;;;3.78;;
18066;SDS011;9158;51.528;7.192;2023-06-14T02:08:55;4.07;;;3.67;;
18066;SDS011;9158;51.528;7.192;2023-06-14T02:09:27;4.85;;;3.42;;
18066;SDS011;9158;51.528;7.192;2023-06-14T02:09:58;3.93;;;3.53;;
18066;SDS011;9158;51.528;7.192;2023-06-14T02:10:29;4.53;;;4.13;;
18066;SDS011;9158;51.528;7.192;2023-06-14T02:11:01;4.13;;;3.83;;
18066;SDS011;9158;51.528;7.192;2023-06-14T02:11:33;4.57;;;4.10;;
18066;SDS011;9158;51.528;7.192;2023-06-14T02:12:04;6.50;;;4.13;;
18066;SDS011;9158;51.528;7.192;2023-06-14T02:12:35;3.88;;;3.45;;
18066;SDS011;9158;51.528;7.192;2023-06-14T02:13:06;4.50;;;3.73;;
18066;SDS011;9158;51.528;7.192;2023-06-14T02:13:38;4.75;;;3.65;;
18066;SDS011;9158;51.528;7.192;2023-06-14T02:14:09;4.50;;;4.10;;
18066;SDS011;9158;51.528;7.192;2023-06-14T02:14:42;5.05;;;3.85;;
18066;SDS011;9158;51.528;7.192;2023-06-14T02:15:14;6.70;;;3.65;;
18066;SDS011;9158;51.528;7.192;2023-06-14T02:15:47;6.80;;;3.53;;
18066;SDS011;9158;51.528;7.192;2023-06-14T02:16:21;5.75;;;3.70;;
18066;SDS011;9158;51.528;7.192;2023-06-14T02:16:53;4.00;;;3.70;;
18066;SDS011;9158;51.528;7.192;2023-06-14T02:17:24;5.93;;;3.65;;
18066;SDS011;9158;51.528;7.192;2023-06-14T02:17:56;4.53;;;3.70;;
18066;SDS011;9158;51.528;7.192;2023-06-14T02:18:27;4.85;;;3.67;;
18066;SDS011;9158;51.528;7.192;2023-06-14T02:19:00;4.05;;;3.72;;
18066;SDS011;9158;51.528;7.192;2023-06-14T02:19:31;3.73;;;3.40;;
18066;SDS011;9158;51.528;7.192;2023-06-14T02:20:02;4.85;;;4.38;;
18066;SDS011;9158;51.528;7.192;2023-06-14T02:20:35;4.22;;;3.83;;
18066;SDS011;9158;51.528;7.192;2023-06-14T02:21:07;6.80;;;4.15;;
18066;SDS011;9158;51.528;7.192;2023-06-14T02:21:37;4.00;;;3.70;;
18066;SDS011;9158;51.528;7.192;2023-06-14T02:22:09;6.22;;;3.92;;
18066;SDS011;9158;51.528;7.192;2023-06-14T02:22:41;4.50;;;4.10;;
18066;SDS011;9158;51.528;7.192;2023-06-14T02:23:12;5.13;;;3.70;;
18066;SDS011;9158;51.528;7.192;2023-06-14T02:23:43;4.38;;;3.97;;
18066;SDS011;9158;51.528;7.192;2023-06-14T02:24:16;5.47;;;3.47;;
18066;SDS011;9158;51.528;7.192;2023-06-14T02:24:47;4.28;;;3.60;;
18066;SDS011;9158;51.528;7.192;2023-06-14T02:25:18;5.00;;;3.90;;
18066;SDS011;9158;51.528;7.192;2023-06-14T02:25:50;4.10;;;3.72;;
18066;SDS011;9158;51.528;7.192;2023-06-14T02:26:21;6.80;;;3.83;;
18066;SDS011;9158;51.528;7.192;2023-06-14T02:26:52;5.25;;;3.75;;
18066;SDS011;9158;51.528;7.192;2023-06-14T02:27:25;6.47;;;3.55;;
18066;SDS011;9158;51.528;7.192;2023-06-14T02:27:56;4.13;;;3.70;;
18066;SDS011;9158;51.528;7.192;2023-06-14T02:28:27;4.18;;;3.80;;
18066;SDS011;9158;51.528;7.192;2023-06-14T02:28:58;3.70;;;3.40;;
18066;SDS011;9158;51.528;7.192;2023-06-14T02:29:30;5.50;;;3.83;;
18066;SDS011;9158;51.528;7.192;2023-06-14T02:30:01;7.15;;;3.78;;
18066;SDS011;9158;51.528;7.192;2023-06-14T02:30:33;3.70;;;3.08;;
18066;SDS011;9158;51.528;7.192;2023-06-14T02:31:04;4.10;;;3.70;;
18066;SDS011;9158;51.528;7.192;2023-06-14T02:31:35;6.95;;;3.85;;
18066;SDS011;9158;51.528;7.192;2023-06-14T02:32:07;4.18;;;3.63;;
18066;SDS011;9158;51.528;7.192;2023-06-14T02:32:39;4.22;;;3.60;;
18066;SDS011;9158;51.528;7.192;2023-06-14T02:33:10;4.10;;;3.70;;
18066;SDS011;9158;51.528;7.192;2023-06-14T02:33:44;4.65;;;3.40;;
18066;SDS011;9158;51.528;7.192;2023-06-14T02:34:15;4.82;;;3.70;;
18066;SDS011;9158;51.528;7.192;2023-06-14T02:34:48;4.35;;;3.17;;
18066;SDS011;9158;51.528;7.192;2023-06-14T02:35:20;4.10;;;3.70;;
18066;SDS011;9158;51.528;7.192;2023-06-14T02:35:52;5.28;;;3.53;;
18066;SDS011;9158;51.528;7.192;2023-06-14T02:36:23;4.60;;;3.22;;
18066;SDS011;9158;51.528;7.192;2023-06-14T02:36:55;3.30;;;3.00;;
18066;SDS011;9158;51.528;7.192;2023-06-14T02:37:27;7.35;;;4.07;;
18066;SDS011;9158;51.528;7.192;2023-06-14T02:37:58;4.35;;;3.70;;
18066;SDS011;9158;51.528;7.192;2023-06-14T02:38:29;6.10;;;3.80;;
18066;SDS011;9158;51.528;7.192;2023-06-14T02:39:01;7.38;;;3.42;;
18066;SDS011;9158;51.528;7.192;2023-06-14T02:39:33;4.82;;;4.25;;
18066;SDS011;9158;51.528;7.192;2023-06-14T02:40:06;3.40;;;3.10;;
18066;SDS011;9158;51.528;7.192;2023-06-14T02:40:39;3.50;;;3.20;;
18066;SDS011;9158;51.528;7.192;2023-06-14T02:41:12;5.05;;;3.70;;
18066;SDS011;9158;51.528;7.192;2023-06-14T02:41:43;3.70;;;3.20;;
18066;SDS011;9158;51.528;7.192;2023-06-14T02:42:14;6.13;;;3.87;;
18066;SDS011;9158;51.528;7.192;2023-06-14T02:42:46;5.30;;;4.00;;
18066;SDS011;9158;51.528;7.192;2023-06-14T02:43:18;4.50;;;3.65;;
18066;SDS011;9158;51.528;7.192;2023-06-14T02:43:49;4.90;;;3.33;;
18066;SDS011;9158;51.528;7.192;2023-06-14T02:44:23;5.13;;;3.40;;
18066;SDS011;9158;51.528;7.192;2023-06-14T02:44:57;9.93;;;3.70;;
18066;SDS011;9158;51.528;7.192;2023-06-14T02:45:27;7.67;;;3.60;;
18066;SDS011;9158;51.528;7.192;2023-06-14T02:45:58;3.67;;;3.25;;
18066;SDS011;9158;51.528;7.192;2023-06-14T02:46:30;5.53;;;3.75;;
18066;SDS011;9158;51.528;7.192;2023-06-14T02:47:01;5.32;;;3.63;;
18066;SDS011;9158;51.528;7.192;2023-06-14T02:47:32;3.75;;;3.38;;
18066;SDS011;9158;51.528;7.192;2023-06-14T02:48:04;4.43;;;3.45;;
18066;SDS011;9158;51.528;7.192;2023-06-14T02:48:35;4.40;;;3.97;;
18066;SDS011;9158;51.528;7.192;2023-06-14T02:49:06;3.85;;;3.30;;
18066;SDS011;9158;51.528;7.192;2023-06-14T02:49:38;4.63;;;3.55;;
18066;SDS011;9158;51.528;7.192;2023-06-14T02:50:10;3.60;;;3.28;;
18066;SDS011;9158;51.528;7.192;2023-06-14T02:50:40;3.97;;;3.40;;
18066;SDS011;9158;51.528;7.192;2023-06-14T02:51:11;4.50;;;3.80;;
18066;SDS011;9158;51.528;7.192;2023-06-14T02:51:43;3.70;;;3.30;;
18066;SDS011;9158;51.528;7.192;2023-06-14T02:52:14;6.05;;;3.47;;
18066;SDS011;9158;51.528;7.192;2023-06-14T02:52:45;4.35;;;3.50;;
18066;SDS011;9158;51.528;7.192;2023-06-14T02:53:17;3.90;;;3.60;;
18066;SDS011;9158;51.528;7.192;2023-06-14T02:53:49;6.13;;;3.47;;
18066;SDS011;9158;51.528;7.192;2023-06-14T02:54:21;4.45;;;3.30;;
18066;SDS011;9158;51.528;7.192;2023-06-14T02:54:53;4.50;;;3.20;;
18066;SDS011;9158;51.528;7.192;2023-06-14T02:55:25;7.00;;;3.50;;
18066;SDS011;9158;51.528;7.192;2023-06-14T02:55:56;4.05;;;3.70;;
18066;SDS011;9158;51.528;7.192;2023-06-14T02:56:28;5.50;;;4.30;;
18066;SDS011;9158;51.528;7.192;2023-06-14T02:57:01;4.00;;;3.05;;
18066;SDS011;9158;51.528;7.192;2023-06-14T02:57:32;3.70;;;3.22;;
18066;SDS011;9158;51.528;7.192;2023-06-14T02:58:03;4.83;;;3.23;;
18066;SDS011;9158;51.528;7.192;2023-06-14T02:58:35;5.65;;;4.10;;
18066;SDS011;9158;51.528;7.192;2023-06-14T02:59:07;5.20;;;3.55;;
18066;SDS011;9158;51.528;7.192;2023-06-14T02:59:39;4.00;;;3.70;;
18066;SDS011;9158;51.528;7.192;2023-06-14T03:00:11;5.45;;;3.72;;
18066;SDS011;9158;51.528;7.192;2023-06-14T03:00:43;3.97;;;3.58;;
18066;SDS011;9158;51.528;7.192;2023-06-14T03:01:15;4.10;;;3.65;;
18066;SDS011;9158;51.528;7.192;2023-06-14T03:01:48;3.38;;;3.03;;
18066;SDS011;9158;51.528;7.192;2023-06-14T03:02:19;3.83;;;3.05;;
18066;SDS011;9158;51.528;7.192;2023-06-14T03:02:50;3.90;;;3.60;;
18066;SDS011;9158;51.528;7.192;2023-06-14T03:03:25;4.40;;;3.55;;
18066;SDS011;9158;51.528;7.192;2023-06-14T03:03:59;3.60;;;3.30;;
18066;SDS011;9158;51.528;7.192;2023-06-14T03:04:30;5.00;;;3.28;;
18066;SDS011;9158;51.528;7.192;2023-06-14T03:05:10;3.75;;;3.28;;
18066;SDS011;9158;51.528;7.192;2023-06-14T03:05:41;9.57;;;3.97;;
18066;SDS011;9158;51.528;7.192;2023-06-14T03:06:16;5.32;;;3.10;;
18066;SDS011;9158;51.528;7.192;2023-06-14T03:06:51;4.05;;;3.22;;
18066;SDS011;9158;51.528;7.192;2023-06-14T03:07:24;3.75;;;3.10;;
18066;SDS011;9158;51.528;7.192;2023-06-14T03:07:57;3.63;;;3.15;;
18066;SDS011;9158;51.528;7.192;2023-06-14T03:08:30;8.90;;;3.83;;
18066;SDS011;9158;51.528;7.192;2023-06-14T03:09:09;5.78;;;3.00;;
18066;SDS011;9158;51.528;7.192;2023-06-14T03:09:42;4.95;;;3.45;;
18066;SDS011;9158;51.528;7.192;2023-06-14T03:10:17;3.92;;;3.60;;
18066;SDS011;9158;51.528;7.192;2023-06-14T03:10:49;3.95;;;3.58;;
18066;SDS011;9158;51.528;7.192;2023-06-14T03:11:20;4.97;;;3.50;;
18066;SDS011;9158;51.528;7.192;2023-06-14T03:11:53;4.78;;;3.72;;
18066;SDS011;9158;51.528;7.192;2023-06-14T03:12:24;3.10;;;2.80;;
18066;SDS011;9158;51.528;7.192;2023-06-14T03:12:55;4.53;;;3.40;;
18066;SDS011;9158;51.528;7.192;2023-06-14T03:13:26;4.03;;;3.60;;
18066;SDS011;9158;51.528;7.192;2023-06-14T03:14:02;3.42;;;3.22;;
18066;SDS011;9158;51.528;7.192;2023-06-14T03:14:34;4.20;;;3.03;;
18066;SDS011;9158;51.528;7.192;2023-06-14T03:15:07;3.33;;;3.00;;
18066;SDS011;9158;51.528;7.192;2023-06-14T03:15:42;3.75;;;3.22;;
18066;SDS011;9158;51.528;7.192;2023-06-14T03:16:15;5.30;;;3.70;;
18066;SDS011;9158;51.528;7.192;2023-06-14T03:16:51;4.18;;;3.28;;
18066;SDS011;9158;51.528;7.192;2023-06-14T03:17:27;3.83;;;3.50;;
18066;SDS011;9158;51.528;7.192;2023-06-14T03:18:00;7.50;;;4.35;;
18066;SDS011;9158;51.528;7.192;2023-06-14T03:18:32;3.60;;;3.30;;
18066;SDS011;9158;51.528;7.192;2023-06-14T03:19:05;3.70;;;3.17;;
18066;SDS011;9158;51.528;7.192;2023-06-14T03:19:38;3.78;;;3.50;;